Time;durP1;ratioP1;P1;durP2;ratioP2;P2;SDS_P1;SDS_P2;PMS_P1;PMS_P2;Temp;Humidity;BMP_temperature;BMP_pressure;BME280_temperature;BME280_humidity;BME280_pressure;Samples;Min_cycle;Max_cycle;Signal;HPM_P1;HPM_P2
2023/04/07 00:02:14;;;;;;;7.57;5.10;;;;;;;;;;6302407;22;20014;-81
2023/04/07 00:04:45;;;;;;;7.55;5.20;;;;;;;;;;6303004;22;20011;-80
2023/04/07 00:07:14;;;;;;;6.28;4.63;;;;;;;;;;6331027;22;19999;-80
2023/04/07 00:09:41;;;;;;;8.02;4.57;;;;;;;;;;6331719;22;20045;-80
2023/04/07 00:12:07;;;;;;;7.38;4.70;;;;;;;;;;6302039;22;20007;-80
2023/04/07 00:14:36;;;;;;;5.68;4.47;;;;;;;;;;6326325;22;20007;-79
2023/04/07 00:17:09;;;;;;;5.85;5.10;;;;;;;;;;6297500;22;20023;-80
2023/04/07 00:19:38;;;;;;;7.57;5.70;;;;;;;;;;6326014;22;20386;-81
2023/04/07 00:22:10;;;;;;;7.53;4.13;;;;;;;;;;6300972;22;20030;-80
2023/04/07 00:24:43;;;;;;;6.65;4.65;;;;;;;;;;6303953;22;20007;-81
2023/04/07 00:27:12;;;;;;;7.10;6.03;;;;;;;;;;6300878;22;20082;-80
2023/04/07 00:29:47;;;;;;;7.47;5.35;;;;;;;;;;6298824;22;20007;-81
2023/04/07 00:32:13;;;;;;;4.70;3.72;;;;;;;;;;6305100;22;20009;-81
2023/04/07 00:34:45;;;;;;;4.80;3.83;;;;;;;;;;6304137;22;19995;-81
2023/04/07 00:37:19;;;;;;;6.10;4.35;;;;;;;;;;6326605;22;20006;-80
2023/04/07 00:39:45;;;;;;;5.60;4.20;;;;;;;;;;6325173;22;20006;-80
2023/04/07 00:42:11;;;;;;;7.60;4.82;;;;;;;;;;6327951;22;20192;-82
2023/04/07 00:44:37;;;;;;;7.97;4.50;;;;;;;;;;6299195;22;20072;-80
2023/04/07 00:47:07;;;;;;;6.60;4.53;;;;;;;;;;6296314;22;19979;-83
2023/04/07 00:49:39;;;;;;;7.97;4.78;;;;;;;;;;6328315;22;19999;-81
2023/04/07 00:52:10;;;;;;;7.07;4.47;;;;;;;;;;6329848;22;19990;-82
2023/04/07 00:54:38;;;;;;;8.50;4.63;;;;;;;;;;6299047;22;20007;-80
2023/04/07 00:57:04;;;;;;;10.38;4.55;;;;;;;;;;6324410;22;19999;-81
2023/04/07 00:59:31;;;;;;;4.93;3.90;;;;;;;;;;6297264;22;20077;-81
2023/04/07 01:02:17;;;;;;;7.57;4.10;;;;;;;;;;6331456;22;20015;-80
2023/04/07 01:04:47;;;;;;;5.25;4.15;;;;;;;;;;6354840;22;20058;-80
2023/04/07 01:07:49;;;;;;;8.18;4.40;;;;;;;;;;6326952;22;20056;-81
2023/04/07 01:10:20;;;;;;;7.43;4.22;;;;;;;;;;6197092;23;20108;-80
2023/04/07 01:12:56;;;;;;;5.28;3.72;;;;;;;;;;6331319;22;20022;-81
2023/04/07 01:15:25;;;;;;;4.45;3.65;;;;;;;;;;6329153;22;20010;-80
2023/04/07 01:17:59;;;;;;;3.75;3.33;;;;;;;;;;6355198;22;20003;-80
2023/04/07 01:20:26;;;;;;;3.88;3.40;;;;;;;;;;6327974;22;20002;-81
2023/04/07 01:22:56;;;;;;;4.40;3.60;;;;;;;;;;6354886;22;20451;-80
2023/04/07 01:25:27;;;;;;;5.57;3.30;;;;;;;;;;6328311;22;20032;-81
2023/04/07 01:28:12;;;;;;;4.03;3.30;;;;;;;;;;6330401;22;20005;-80
2023/04/07 01:30:47;;;;;;;4.05;2.90;;;;;;;;;;6327423;22;19999;-79
2023/04/07 01:33:17;;;;;;;8.50;3.75;;;;;;;;;;6327632;22;20007;-80
2023/04/07 01:35:47;;;;;;;7.25;3.20;;;;;;;;;;6326653;22;20032;-81
2023/04/07 01:38:21;;;;;;;6.35;3.47;;;;;;;;;;6326272;22;20007;-80
2023/04/07 01:40:50;;;;;;;5.40;3.65;;;;;;;;;;6355293;22;20009;-81
2023/04/07 01:43:23;;;;;;;6.90;4.15;;;;;;;;;;6361548;22;20005;-81
2023/04/07 01:45:54;;;;;;;4.90;4.00;;;;;;;;;;6359484;22;20010;-80
2023/04/07 01:48:24;;;;;;;6.53;3.88;;;;;;;;;;6361322;22;19998;-80
2023/04/07 01:50:55;;;;;;;5.80;4.45;;;;;;;;;;6361437;22;19999;-81
2023/04/07 01:53:25;;;;;;;4.78;3.85;;;;;;;;;;6334020;22;20026;-80
2023/04/07 01:55:57;;;;;;;7.13;4.28;;;;;;;;;;6361830;22;19999;-81
2023/04/07 01:58:31;;;;;;;8.32;4.53;;;;;;;;;;6333049;22;20003;-80
2023/04/07 02:00:59;;;;;;;7.70;4.60;;;;;;;;;;6357114;22;20006;-79
2023/04/07 02:03:36;;;;;;;7.57;6.05;;;;;;;;;;6326549;22;20007;-81
2023/04/07 02:06:06;;;;;;;8.95;4.90;;;;;;;;;;6354320;22;20014;-80
2023/04/07 02:08:35;;;;;;;7.00;4.75;;;;;;;;;;6356097;22;20184;-80
2023/04/07 02:11:06;;;;;;;6.55;4.35;;;;;;;;;;6356626;22;19995;-81
2023/04/07 02:13:37;;;;;;;7.13;4.57;;;;;;;;;;6331817;22;20007;-80
2023/04/07 02:16:09;;;;;;;7.95;5.15;;;;;;;;;;6328628;22;19999;-81
2023/04/07 02:18:39;;;;;;;8.90;4.55;;;;;;;;;;6359231;22;20027;-81
2023/04/07 02:21:15;;;;;;;7.97;5.97;;;;;;;;;;6332061;22;20009;-80
2023/04/07 02:23:41;;;;;;;7.95;5.07;;;;;;;;;;6331607;22;20007;-81
2023/04/07 02:26:16;;;;;;;6.63;5.30;;;;;;;;;;6335652;22;20003;-80
2023/04/07 02:28:45;;;;;;;5.00;4.50;;;;;;;;;;6362576;22;20010;-80
2023/04/07 02:31:15;;;;;;;8.10;5.07;;;;;;;;;;6362749;22;20068;-80
2023/04/07 02:33:41;;;;;;;6.63;4.80;;;;;;;;;;6362580;22;19987;-80
2023/04/07 02:36:07;;;;;;;7.63;5.55;;;;;;;;;;6363138;22;20007;-80
2023/04/07 02:38:36;;;;;;;21.05;6.15;;;;;;;;;;6333385;22;20011;-81
2023/04/07 02:41:05;;;;;;;8.48;5.35;;;;;;;;;;6333986;22;20079;-81
2023/04/07 02:43:36;;;;;;;7.70;5.85;;;;;;;;;;6358253;22;20064;-80
2023/04/07 02:46:07;;;;;;;9.77;5.45;;;;;;;;;;6351966;22;20011;-80
2023/04/07 02:48:42;;;;;;;7.90;4.90;;;;;;;;;;6359747;22;19995;-80
2023/04/07 02:51:11;;;;;;;8.88;4.72;;;;;;;;;;6330629;22;20094;-80
2023/04/07 02:53:46;;;;;;;7.45;5.60;;;;;;;;;;6356544;22;20028;-80
2023/04/07 02:56:12;;;;;;;9.02;5.95;;;;;;;;;;6330273;22;20101;-80
2023/04/07 02:58:41;;;;;;;9.38;6.70;;;;;;;;;;6329702;22;20062;-80
2023/04/07 03:01:07;;;;;;;9.43;6.25;;;;;;;;;;6357889;22;20003;-81
2023/04/07 03:03:33;;;;;;;7.53;5.45;;;;;;;;;;6335289;22;19998;-80
2023/04/07 03:06:02;;;;;;;11.80;6.03;;;;;;;;;;6333371;22;20357;-81
2023/04/07 03:08:28;;;;;;;11.80;6.10;;;;;;;;;;6337862;22;19997;-81
2023/04/07 03:10:54;;;;;;;10.25;6.30;;;;;;;;;;6365109;22;20055;-79
2023/04/07 03:13:23;;;;;;;9.60;5.95;;;;;;;;;;6363389;22;20041;-81
2023/04/07 03:15:52;;;;;;;7.25;4.53;;;;;;;;;;6356354;22;20029;-80
2023/04/07 03:18:25;;;;;;;9.05;5.85;;;;;;;;;;6354629;22;19999;-79
2023/04/07 03:20:54;;;;;;;6.50;5.32;;;;;;;;;;6325108;22;20017;-80
2023/04/07 03:23:20;;;;;;;8.27;5.55;;;;;;;;;;6325544;22;20015;-79
2023/04/07 03:25:46;;;;;;;6.90;5.50;;;;;;;;;;6327646;22;20208;-80
2023/04/07 03:28:15;;;;;;;8.55;5.82;;;;;;;;;;6357974;22;20003;-79
2023/04/07 03:30:48;;;;;;;12.05;6.20;;;;;;;;;;6356882;22;20078;-80
2023/04/07 03:33:15;;;;;;;6.70;5.32;;;;;;;;;;6357510;22;19999;-79
2023/04/07 03:35:49;;;;;;;7.72;5.82;;;;;;;;;;6330029;22;20037;-79
2023/04/07 03:38:18;;;;;;;6.15;5.03;;;;;;;;;;6324932;22;20007;-79
2023/04/07 03:40:44;;;;;;;8.02;5.15;;;;;;;;;;6324978;22;20010;-80
2023/04/07 03:43:13;;;;;;;5.78;4.30;;;;;;;;;;6324984;22;20015;-79
2023/04/07 03:45:39;;;;;;;5.88;4.72;;;;;;;;;;6323764;22;20042;-79
2023/04/07 03:48:13;;;;;;;8.25;5.38;;;;;;;;;;6352219;22;19995;-78
2023/04/07 03:50:42;;;;;;;6.15;4.90;;;;;;;;;;6351691;22;19999;-80
2023/04/07 03:53:12;;;;;;;7.55;5.05;;;;;;;;;;6323766;22;20029;-79
2023/04/07 03:55:38;;;;;;;7.45;4.82;;;;;;;;;;6324085;22;20002;-79
2023/04/07 03:58:05;;;;;;;7.68;5.32;;;;;;;;;;6351065;22;20007;-79
2023/04/07 04:00:32;;;;;;;8.70;6.38;;;;;;;;;;6324125;22;20031;-79
2023/04/07 04:02:58;;;;;;;8.38;5.50;;;;;;;;;;6321589;22;20011;-80
2023/04/07 04:05:24;;;;;;;11.90;5.53;;;;;;;;;;6323384;22;20013;-79
2023/04/07 04:07:51;;;;;;;7.72;5.63;;;;;;;;;;6351488;22;20037;-80
2023/04/07 04:10:18;;;;;;;8.20;5.63;;;;;;;;;;6350835;22;20325;-79
2023/04/07 04:12:44;;;;;;;6.63;4.90;;;;;;;;;;6354917;22;19999;-81
2023/04/07 04:15:11;;;;;;;8.75;5.38;;;;;;;;;;6326535;22;20002;-80
2023/04/07 04:17:37;;;;;;;7.13;5.25;;;;;;;;;;6324303;22;20003;-79
2023/04/07 04:20:03;;;;;;;7.75;5.28;;;;;;;;;;6354918;22;19998;-80
2023/04/07 04:22:29;;;;;;;7.68;5.55;;;;;;;;;;6354111;22;20490;-80
2023/04/07 04:24:55;;;;;;;10.32;5.00;;;;;;;;;;6326922;22;20034;-80
2023/04/07 04:27:21;;;;;;;7.13;6.13;;;;;;;;;;6328916;22;20041;-80
2023/04/07 04:29:47;;;;;;;9.05;5.80;;;;;;;;;;6356894;22;19999;-80
2023/04/07 04:32:14;;;;;;;13.38;6.75;;;;;;;;;;6329240;22;19999;-80
2023/04/07 04:34:41;;;;;;;9.93;5.88;;;;;;;;;;6328352;22;20064;-80
2023/04/07 04:37:07;;;;;;;9.55;5.60;;;;;;;;;;6329931;22;20085;-82
2023/04/07 04:39:33;;;;;;;7.35;5.00;;;;;;;;;;6353336;22;20018;-79
2023/04/07 04:42:00;;;;;;;7.93;5.85;;;;;;;;;;6351764;22;20007;-79
2023/04/07 04:44:26;;;;;;;6.75;5.60;;;;;;;;;;6351444;22;20303;-80
2023/04/07 04:46:52;;;;;;;12.75;6.00;;;;;;;;;;6350686;22;19999;-79
2023/04/07 04:49:18;;;;;;;7.40;5.10;;;;;;;;;;6324546;22;20023;-81
2023/04/07 04:51:45;;;;;;;9.18;5.95;;;;;;;;;;6328139;22;19983;-80
2023/04/07 04:54:11;;;;;;;9.13;5.68;;;;;;;;;;6353991;22;20007;-80
2023/04/07 04:56:37;;;;;;;11.20;5.85;;;;;;;;;;6354471;22;19999;-80
2023/04/07 04:59:04;;;;;;;6.97;4.80;;;;;;;;;;6329913;22;20010;-80
2023/04/07 05:01:30;;;;;;;6.40;5.03;;;;;;;;;;6358069;22;20003;-80
2023/04/07 05:03:56;;;;;;;10.82;4.93;;;;;;;;;;6331953;22;20010;-80
2023/04/07 05:06:22;;;;;;;9.85;4.95;;;;;;;;;;6358387;22;20017;-80
2023/04/07 05:08:48;;;;;;;8.27;5.10;;;;;;;;;;6358709;22;20364;-78
2023/04/07 05:11:14;;;;;;;5.82;4.22;;;;;;;;;;6352697;22;20003;-81
2023/04/07 05:13:41;;;;;;;5.68;4.82;;;;;;;;;;6327609;22;20006;-79
2023/04/07 05:16:07;;;;;;;7.78;4.53;;;;;;;;;;6353659;22;19998;-80
2023/04/07 05:18:33;;;;;;;6.07;4.43;;;;;;;;;;6355166;22;20003;-80
2023/04/07 05:21:00;;;;;;;6.28;4.70;;;;;;;;;;6355088;22;20010;-79
2023/04/07 05:23:26;;;;;;;5.97;4.30;;;;;;;;;;6326938;22;20007;-80
2023/04/07 05:25:52;;;;;;;5.03;4.10;;;;;;;;;;6352545;22;19999;-80
2023/04/07 05:28:19;;;;;;;6.13;4.22;;;;;;;;;;6326882;22;20006;-79
2023/04/07 05:30:45;;;;;;;6.45;4.60;;;;;;;;;;6353597;22;20018;-79
2023/04/07 05:33:12;;;;;;;5.20;4.10;;;;;;;;;;6320184;22;20010;-79
2023/04/07 05:35:38;;;;;;;5.53;4.30;;;;;;;;;;6349308;22;19998;-79
2023/04/07 05:38:04;;;;;;;4.88;4.10;;;;;;;;;;6323319;22;20003;-79
2023/04/07 05:40:30;;;;;;;7.80;4.65;;;;;;;;;;6326919;22;20013;-80
2023/04/07 05:42:56;;;;;;;4.65;4.05;;;;;;;;;;6356345;22;20094;-80
2023/04/07 05:45:22;;;;;;;8.18;4.97;;;;;;;;;;6358548;22;20007;-80
2023/04/07 05:47:49;;;;;;;5.80;4.70;;;;;;;;;;6335449;22;20006;-79
2023/04/07 05:50:16;;;;;;;6.53;4.55;;;;;;;;;;6356438;22;19999;-79
2023/04/07 05:52:42;;;;;;;6.15;4.68;;;;;;;;;;6349213;22;20003;-79
2023/04/07 05:55:08;;;;;;;8.70;4.25;;;;;;;;;;6323400;22;20018;-79
2023/04/07 05:57:34;;;;;;;6.35;4.30;;;;;;;;;;6325634;22;20497;-80
2023/04/07 06:00:01;;;;;;;5.72;4.40;;;;;;;;;;6324621;22;20009;-80
2023/04/07 06:02:27;;;;;;;7.68;4.30;;;;;;;;;;6349971;22;20089;-78
2023/04/07 06:04:53;;;;;;;8.27;4.00;;;;;;;;;;6350467;22;20079;-80
2023/04/07 06:07:19;;;;;;;6.13;4.72;;;;;;;;;;6323035;22;20002;-79
2023/04/07 06:09:45;;;;;;;5.65;4.18;;;;;;;;;;6352092;22;20019;-79
2023/04/07 06:12:12;;;;;;;7.82;4.72;;;;;;;;;;6350588;22;20009;-79
2023/04/07 06:14:38;;;;;;;7.55;4.88;;;;;;;;;;6327150;22;19991;-81
2023/04/07 06:17:05;;;;;;;6.65;4.95;;;;;;;;;;6362496;22;20015;-79
2023/04/07 06:19:32;;;;;;;6.28;4.63;;;;;;;;;;6335353;22;19997;-80
2023/04/07 06:21:58;;;;;;;10.77;5.18;;;;;;;;;;6358647;22;19998;-81
2023/04/07 06:24:24;;;;;;;9.57;5.50;;;;;;;;;;6362681;22;19986;-81
2023/04/07 06:26:55;;;;;;;8.40;6.10;;;;;;;;;;6365581;22;19986;-81
2023/04/07 06:29:21;;;;;;;8.23;6.70;;;;;;;;;;6336407;22;19998;-79
2023/04/07 06:31:47;;;;;;;6.68;4.88;;;;;;;;;;6353526;22;19995;-79
2023/04/07 06:34:13;;;;;;;10.05;6.00;;;;;;;;;;6353033;22;19998;-79
2023/04/07 06:36:40;;;;;;;7.95;5.75;;;;;;;;;;6351356;22;20006;-80
2023/04/07 06:39:06;;;;;;;8.07;5.30;;;;;;;;;;6352662;22;20030;-79
2023/04/07 06:41:34;;;;;;;6.72;4.90;;;;;;;;;;6325465;22;20068;-79
2023/04/07 06:44:00;;;;;;;9.52;5.30;;;;;;;;;;6353122;22;20007;-80
2023/04/07 06:46:26;;;;;;;8.85;5.75;;;;;;;;;;6336431;22;20003;-82
2023/04/07 06:48:53;;;;;;;9.75;5.10;;;;;;;;;;6338621;22;20019;-82
2023/04/07 06:51:19;;;;;;;10.40;5.60;;;;;;;;;;6337447;22;20028;-81
2023/04/07 06:53:47;;;;;;;12.27;6.20;;;;;;;;;;6335334;22;20375;-80
2023/04/07 06:56:13;;;;;;;9.48;6.70;;;;;;;;;;6354489;22;20005;-80
2023/04/07 06:58:39;;;;;;;9.65;6.63;;;;;;;;;;6353403;22;20097;-79
2023/04/07 07:01:06;;;;;;;8.20;6.30;;;;;;;;;;6324249;22;20017;-79
2023/04/07 07:03:32;;;;;;;12.98;6.65;;;;;;;;;;6351177;22;20211;-79
2023/04/07 07:05:58;;;;;;;9.07;5.80;;;;;;;;;;6328711;22;20003;-81
2023/04/07 07:08:25;;;;;;;14.30;6.88;;;;;;;;;;6330458;22;19999;-80
2023/04/07 07:10:52;;;;;;;11.05;6.72;;;;;;;;;;6328357;22;20449;-80
2023/04/07 07:13:18;;;;;;;9.98;6.57;;;;;;;;;;6328863;22;20018;-80
2023/04/07 07:15:44;;;;;;;9.32;7.05;;;;;;;;;;6355872;22;20019;-81
2023/04/07 07:18:11;;;;;;;13.15;6.63;;;;;;;;;;6356565;22;19999;-79
2023/04/07 07:20:37;;;;;;;10.68;7.43;;;;;;;;;;6357122;22;20033;-80
2023/04/07 07:23:03;;;;;;;11.10;7.55;;;;;;;;;;6330609;22;20007;-80
2023/04/07 07:25:30;;;;;;;9.00;6.40;;;;;;;;;;6357901;22;19999;-80
2023/04/07 07:27:56;;;;;;;10.38;5.55;;;;;;;;;;6357369;22;19999;-79
2023/04/07 07:30:22;;;;;;;7.20;5.50;;;;;;;;;;6357016;22;20055;-80
2023/04/07 07:32:49;;;;;;;8.23;5.22;;;;;;;;;;6356727;22;19998;-80
2023/04/07 07:35:15;;;;;;;8.65;5.35;;;;;;;;;;6331178;22;20063;-80
2023/04/07 07:37:43;;;;;;;11.50;4.70;;;;;;;;;;6360119;22;20047;-81
2023/04/07 07:40:09;;;;;;;9.90;4.78;;;;;;;;;;6336944;22;20003;-80
2023/04/07 07:42:35;;;;;;;7.70;5.40;;;;;;;;;;6363402;22;19989;-80
2023/04/07 07:45:02;;;;;;;8.73;5.22;;;;;;;;;;6338785;22;20063;-80
2023/04/07 07:47:28;;;;;;;11.80;5.10;;;;;;;;;;6362867;22;20003;-80
2023/04/07 07:49:54;;;;;;;7.45;4.93;;;;;;;;;;6360386;22;20010;-80
2023/04/07 07:52:20;;;;;;;5.43;4.32;;;;;;;;;;6331282;22;20014;-80
2023/04/07 07:54:47;;;;;;;10.02;4.80;;;;;;;;;;6360346;22;20015;-80
2023/04/07 07:57:14;;;;;;;6.70;4.43;;;;;;;;;;6330446;22;19999;-79
2023/04/07 07:59:40;;;;;;;10.52;5.25;;;;;;;;;;6331930;22;20005;-80
2023/04/07 08:02:07;;;;;;;14.43;5.63;;;;;;;;;;6331198;22;20062;-80
2023/04/07 08:04:33;;;;;;;9.48;4.95;;;;;;;;;;6360134;22;20010;-79
2023/04/07 08:06:59;;;;;;;12.40;5.30;;;;;;;;;;6359623;22;19999;-80
2023/04/07 08:09:26;;;;;;;10.13;5.13;;;;;;;;;;6359911;22;20050;-79
2023/04/07 08:11:55;;;;;;;7.18;4.95;;;;;;;;;;6332462;22;20008;-80
2023/04/07 08:14:21;;;;;;;8.75;5.15;;;;;;;;;;6358021;22;19995;-78
2023/04/07 08:16:47;;;;;;;9.48;5.25;;;;;;;;;;6326375;22;20052;-80
2023/04/07 08:19:13;;;;;;;9.77;5.18;;;;;;;;;;6355272;22;20024;-79
2023/04/07 08:21:40;;;;;;;9.70;6.00;;;;;;;;;;6352917;22;20003;-80
2023/04/07 08:24:06;;;;;;;13.27;5.60;;;;;;;;;;6354100;22;20085;-79
2023/04/07 08:26:32;;;;;;;8.30;5.07;;;;;;;;;;6352749;22;19995;-79
2023/04/07 08:28:58;;;;;;;7.43;5.13;;;;;;;;;;6353857;22;19998;-79
2023/04/07 08:31:25;;;;;;;8.32;4.80;;;;;;;;;;6325361;22;20029;-79
2023/04/07 08:33:56;;;;;;;9.68;5.50;;;;;;;;;;6354590;22;20017;-79
2023/04/07 08:36:26;;;;;;;8.82;5.32;;;;;;;;;;6327137;22;20041;-80
2023/04/07 08:38:53;;;;;;;6.75;4.40;;;;;;;;;;6327403;22;20452;-78
2023/04/07 08:41:38;;;;;;;9.02;4.72;;;;;;;;;;6330667;22;20061;-81
2023/04/07 08:44:04;;;;;;;7.13;4.28;;;;;;;;;;6354391;22;19999;-79
2023/04/07 08:46:30;;;;;;;10.30;4.30;;;;;;;;;;6354652;22;20017;-81
2023/04/07 08:48:57;;;;;;;7.28;4.65;;;;;;;;;;6337158;22;20028;-80
2023/04/07 08:51:33;;;;;;;4.32;3.60;;;;;;;;;;6363027;22;20009;-80
2023/04/07 08:54:02;;;;;;;6.13;3.90;;;;;;;;;;6328755;22;20002;-81
2023/04/07 08:56:28;;;;;;;8.55;3.30;;;;;;;;;;6327702;22;20205;-80
2023/04/07 08:58:55;;;;;;;6.63;3.58;;;;;;;;;;6328502;22;20341;-79
2023/04/07 09:01:22;;;;;;;8.98;3.85;;;;;;;;;;6354757;22;20056;-80
2023/04/07 09:03:49;;;;;;;8.00;3.90;;;;;;;;;;6328014;22;20007;-79
2023/04/07 09:06:15;;;;;;;11.23;3.70;;;;;;;;;;6354990;22;20002;-79
2023/04/07 09:08:41;;;;;;;9.88;4.35;;;;;;;;;;6329926;22;20005;-79
2023/04/07 09:11:07;;;;;;;9.05;4.20;;;;;;;;;;6357648;22;19999;-78
2023/04/07 09:13:33;;;;;;;7.63;4.07;;;;;;;;;;6332178;22;20026;-79
2023/04/07 09:16:01;;;;;;;9.60;4.63;;;;;;;;;;6357608;22;19999;-82
2023/04/07 09:18:28;;;;;;;11.20;4.13;;;;;;;;;;6331650;22;20340;-80
2023/04/07 09:21:02;;;;;;;6.75;4.25;;;;;;;;;;6359532;22;19999;-80
2023/04/07 09:23:30;;;;;;;6.03;4.55;;;;;;;;;;6331500;22;19999;-79
2023/04/07 09:25:58;;;;;;;11.30;4.57;;;;;;;;;;6357417;22;20019;-80
2023/04/07 09:28:24;;;;;;;8.82;3.95;;;;;;;;;;6328491;22;20013;-79
2023/04/07 09:30:54;;;;;;;5.90;3.80;;;;;;;;;;6327901;22;20066;-80
2023/04/07 09:33:29;;;;;;;8.68;4.20;;;;;;;;;;6329010;22;19995;-79
2023/04/07 09:35:56;;;;;;;;;;;;;;;;;;6355517;22;20003;-80
2023/04/07 09:38:22;;;;;;;5.22;2.80;;;;;;;;;;6330288;22;19903;-79
2023/04/07 09:40:50;;;;;;;5.90;3.40;;;;;;;;;;6328629;22;20028;-80
2023/04/07 09:43:17;;;;;;;8.20;3.25;;;;;;;;;;6332407;22;20007;-80
2023/04/07 09:45:44;;;;;;;3.42;2.72;;;;;;;;;;6359989;22;20061;-80
2023/04/07 09:48:20;;;;;;;6.03;2.70;;;;;;;;;;6328845;22;20003;-79
2023/04/07 09:50:50;;;;;;;4.55;2.47;;;;;;;;;;6355248;22;20006;-80
2023/04/07 09:53:19;;;;;;;4.57;2.55;;;;;;;;;;6363466;22;19999;-80
2023/04/07 09:55:45;;;;;;;5.82;2.35;;;;;;;;;;6361577;22;20055;-81
2023/04/07 09:58:15;;;;;;;7.93;2.65;;;;;;;;;;6360444;22;19994;-80
2023/04/07 10:00:41;;;;;;;4.38;2.60;;;;;;;;;;6336248;22;20440;-80
2023/04/07 10:03:08;;;;;;;6.43;2.75;;;;;;;;;;6338138;22;20029;-80
2023/04/07 10:05:35;;;;;;;3.45;2.10;;;;;;;;;;6367237;22;19986;-81
2023/04/07 10:08:02;;;;;;;2.33;1.67;;;;;;;;;;6367409;22;19991;-81
2023/04/07 10:10:29;;;;;;;2.10;1.77;;;;;;;;;;6367471;22;20007;-79
2023/04/07 10:12:57;;;;;;;2.83;1.60;;;;;;;;;;6367111;22;19999;-80
2023/04/07 10:15:24;;;;;;;4.05;1.80;;;;;;;;;;6341648;22;20063;-80
2023/04/07 10:17:51;;;;;;;2.80;1.67;;;;;;;;;;6297769;22;20046;-85
2023/04/07 10:20:19;;;;;;;1.83;1.55;;;;;;;;;;6313526;22;19999;-77
2023/04/07 10:22:47;;;;;;;3.00;1.65;;;;;;;;;;6309208;22;19995;-82
2023/04/07 10:25:14;;;;;;;2.47;1.60;;;;;;;;;;6314100;22;20478;-84
2023/04/07 10:27:50;;;;;;;1.88;1.70;;;;;;;;;;6314653;22;20003;-90
2023/04/07 10:30:26;;;;;;;1.92;1.55;;;;;;;;;;6312174;22;20007;-86
2023/04/07 10:32:53;;;;;;;3.28;2.03;;;;;;;;;;6314255;22;20007;-88
2023/04/07 10:35:20;;;;;;;1.85;1.73;;;;;;;;;;6313924;22;20006;-78
2023/04/07 10:38:05;;;;;;;2.47;1.80;;;;;;;;;;6312974;22;20304;-87
2023/04/07 10:40:31;;;;;;;2.00;1.80;;;;;;;;;;6313011;22;20451;-85
2023/04/07 10:42:58;;;;;;;2.38;1.88;;;;;;;;;;6311295;22;19999;-84
2023/04/07 10:45:43;;;;;;;4.30;1.55;;;;;;;;;;6311668;22;20003;-85
2023/04/07 10:48:10;;;;;;;2.53;1.60;;;;;;;;;;6312037;22;20007;-79
2023/04/07 10:50:36;;;;;;;1.80;1.70;;;;;;;;;;6313370;22;19999;-86
2023/04/07 10:53:10;;;;;;;3.97;1.70;;;;;;;;;;6313554;22;19999;-81
2023/04/07 10:55:38;;;;;;;3.10;2.50;;;;;;;;;;6313197;22;20033;-86
2023/04/07 10:58:17;;;;;;;2.35;1.77;;;;;;;;;;6311163;22;20007;-81
2023/04/07 11:01:03;;;;;;;4.90;1.70;;;;;;;;;;6312736;22;20067;-84
2023/04/07 11:03:31;;;;;;;2.15;1.65;;;;;;;;;;6309348;22;20063;-86
2023/04/07 11:06:10;;;;;;;2.30;1.77;;;;;;;;;;6309591;22;20003;-79
2023/04/07 11:08:38;;;;;;;2.25;1.48;;;;;;;;;;6307743;22;20360;-85
2023/04/07 11:11:07;;;;;;;2.53;1.80;;;;;;;;;;6309497;22;20106;-85
2023/04/07 11:14:00;;;;;;;1.70;1.60;;;;;;;;;;6309343;22;20011;-85
2023/04/07 11:16:35;;;;;;;2.30;1.65;;;;;;;;;;6307045;22;20011;-89
2023/04/07 11:19:01;;;;;;;4.03;2.15;;;;;;;;;;6305678;22;20026;-85
2023/04/07 11:21:27;;;;;;;2.00;1.80;;;;;;;;;;6308131;22;20007;-89
2023/04/07 11:23:54;;;;;;;3.08;1.90;;;;;;;;;;6308969;22;20011;-87
2023/04/07 11:26:20;;;;;;;4.15;1.70;;;;;;;;;;6310250;22;20068;-84
2023/04/07 11:28:48;;;;;;;2.40;1.50;;;;;;;;;;6306415;22;19999;-87
2023/04/07 11:31:23;;;;;;;1.77;1.67;;;;;;;;;;6310285;22;20011;-86
2023/04/07 11:33:57;;;;;;;3.63;1.60;;;;;;;;;;6310909;22;20448;-81
2023/04/07 11:36:42;;;;;;;3.95;1.58;;;;;;;;;;6310894;22;20381;-81
2023/04/07 11:39:21;;;;;;;4.05;1.77;;;;;;;;;;6309639;22;20003;-87
2023/04/07 11:41:48;;;;;;;1.58;1.48;;;;;;;;;;6313022;22;20007;-87
2023/04/07 11:44:14;;;;;;;1.70;1.60;;;;;;;;;;6310653;22;20246;-87
2023/04/07 11:46:54;;;;;;;3.28;1.80;;;;;;;;;;6308702;22;20022;-86
2023/04/07 11:49:20;;;;;;;2.47;1.70;;;;;;;;;;6310786;22;20003;-88
2023/04/07 11:51:46;;;;;;;3.50;1.58;;;;;;;;;;6305697;22;20475;-80
2023/04/07 11:54:12;;;;;;;2.08;1.65;;;;;;;;;;6309377;22;20462;-88
2023/04/07 11:56:46;;;;;;;1.83;1.50;;;;;;;;;;6307856;22;19995;-83
2023/04/07 11:59:21;;;;;;;2.75;1.50;;;;;;;;;;6311068;22;20004;-83
2023/04/07 12:01:48;;;;;;;2.65;1.60;;;;;;;;;;6308168;22;19999;-83
2023/04/07 12:04:17;;;;;;;2.30;1.70;;;;;;;;;;6310010;22;20015;-85
2023/04/07 12:06:44;;;;;;;2.58;1.70;;;;;;;;;;6306498;22;19995;-88
2023/04/07 12:09:26;;;;;;;3.22;1.60;;;;;;;;;;6306885;22;20038;-84
2023/04/07 12:11:52;;;;;;;1.48;1.38;;;;;;;;;;6307511;22;20006;-87
2023/04/07 12:14:18;;;;;;;2.60;2.00;;;;;;;;;;6309509;22;20014;-86
2023/04/07 12:16:45;;;;;;;2.35;1.90;;;;;;;;;;6309644;22;20068;-80
2023/04/07 12:19:11;;;;;;;3.22;1.80;;;;;;;;;;6308040;22;20003;-84
2023/04/07 12:21:37;;;;;;;2.78;1.70;;;;;;;;;;6309998;22;19995;-86
2023/04/07 12:24:04;;;;;;;4.75;1.90;;;;;;;;;;6307138;22;20333;-87
2023/04/07 12:26:30;;;;;;;1.73;1.63;;;;;;;;;;6307341;22;20018;-84
2023/04/07 12:28:57;;;;;;;1.85;1.50;;;;;;;;;;6303205;22;19999;-85
2023/04/07 12:31:24;;;;;;;3.22;1.90;;;;;;;;;;6307515;22;20022;-80
2023/04/07 12:33:50;;;;;;;3.47;1.95;;;;;;;;;;6305390;22;20003;-85
2023/04/07 12:36:16;;;;;;;4.43;1.90;;;;;;;;;;6308413;22;20631;-86
2023/04/07 12:38:42;;;;;;;2.83;1.73;;;;;;;;;;6305244;22;20185;-80
2023/04/07 12:41:08;;;;;;;3.17;1.90;;;;;;;;;;6307884;22;19999;-86
2023/04/07 12:43:34;;;;;;;2.47;1.80;;;;;;;;;;6308567;22;20003;-83
2023/04/07 12:46:00;;;;;;;1.70;1.60;;;;;;;;;;6305779;22;20511;-85
2023/04/07 12:48:27;;;;;;;3.40;1.80;;;;;;;;;;6308185;22;20034;-82
2023/04/07 12:50:53;;;;;;;1.40;1.30;;;;;;;;;;6306947;22;20029;-79
2023/04/07 12:53:19;;;;;;;2.50;1.60;;;;;;;;;;6309158;22;19999;-83
2023/04/07 12:55:47;;;;;;;3.25;1.50;;;;;;;;;;6306690;22;20003;-78
2023/04/07 12:58:13;;;;;;;2.78;2.13;;;;;;;;;;6308029;22;20081;-87
2023/04/07 13:00:40;;;;;;;2.10;1.83;;;;;;;;;;6306395;22;20504;-82
2023/04/07 13:03:06;;;;;;;1.77;1.67;;;;;;;;;;6308164;22;20542;-85
2023/04/07 13:05:33;;;;;;;3.00;1.90;;;;;;;;;;6305078;22;20386;-87
2023/04/07 13:07:59;;;;;;;2.35;1.60;;;;;;;;;;6309273;22;20007;-82
2023/04/07 13:10:26;;;;;;;3.45;2.75;;;;;;;;;;6305261;22;20004;-81
2023/04/07 13:12:52;;;;;;;1.90;1.55;;;;;;;;;;6306825;22;20003;-88
2023/04/07 13:15:18;;;;;;;2.47;2.05;;;;;;;;;;6308742;22;20006;-84
2023/04/07 13:17:46;;;;;;;4.70;1.77;;;;;;;;;;6305461;22;20015;-86
2023/04/07 13:20:12;;;;;;;4.90;1.70;;;;;;;;;;6308988;22;20003;-85
2023/04/07 13:22:38;;;;;;;3.05;1.75;;;;;;;;;;6307616;22;20055;-86
2023/04/07 13:25:05;;;;;;;4.50;2.00;;;;;;;;;;6308476;22;20086;-81
2023/04/07 13:27:31;;;;;;;1.92;1.77;;;;;;;;;;6305432;22;20350;-83
2023/04/07 13:29:57;;;;;;;2.35;1.70;;;;;;;;;;6306483;22;19996;-85
2023/04/07 13:32:23;;;;;;;2.42;1.80;;;;;;;;;;6305485;22;20007;-81
2023/04/07 13:34:49;;;;;;;2.92;1.80;;;;;;;;;;6303017;22;20003;-86
2023/04/07 13:37:16;;;;;;;2.13;1.77;;;;;;;;;;6302292;22;20003;-83
2023/04/07 13:39:42;;;;;;;3.45;2.28;;;;;;;;;;6305176;22;20026;-86
2023/04/07 13:42:08;;;;;;;2.72;2.13;;;;;;;;;;6306103;22;20038;-85
2023/04/07 13:44:36;;;;;;;2.42;1.80;;;;;;;;;;6307093;22;20007;-83
2023/04/07 13:47:02;;;;;;;3.03;1.77;;;;;;;;;;6305980;22;20003;-86
2023/04/07 13:49:28;;;;;;;3.25;1.98;;;;;;;;;;6307044;22;20422;-78
2023/04/07 13:51:55;;;;;;;2.95;1.90;;;;;;;;;;6306346;22;20007;-88
2023/04/07 13:54:21;;;;;;;3.45;2.10;;;;;;;;;;6305744;22;20007;-82
2023/04/07 13:56:49;;;;;;;2.28;1.70;;;;;;;;;;6304470;22;20015;-84
2023/04/07 13:59:15;;;;;;;3.17;1.80;;;;;;;;;;6308493;22;20003;-84
2023/04/07 14:01:42;;;;;;;2.45;1.73;;;;;;;;;;6304938;22;20027;-87
2023/04/07 14:04:08;;;;;;;3.65;1.98;;;;;;;;;;6306971;22;20428;-82
2023/04/07 14:06:36;;;;;;;3.78;1.80;;;;;;;;;;6305944;22;20332;-86
2023/04/07 14:09:02;;;;;;;2.13;1.75;;;;;;;;;;6308252;22;20523;-86
2023/04/07 14:11:29;;;;;;;2.33;2.00;;;;;;;;;;6306768;22;20007;-84
2023/04/07 14:13:56;;;;;;;3.30;1.77;;;;;;;;;;6307834;22;20025;-80
2023/04/07 14:16:22;;;;;;;2.28;1.75;;;;;;;;;;6308163;22;20003;-87
2023/04/07 14:18:48;;;;;;;5.15;2.00;;;;;;;;;;6307920;22;20018;-85
2023/04/07 14:21:14;;;;;;;2.38;1.80;;;;;;;;;;6305049;22;20011;-86
2023/04/07 14:23:41;;;;;;;2.40;1.67;;;;;;;;;;6309459;22;20019;-85
2023/04/07 14:26:10;;;;;;;4.43;1.90;;;;;;;;;;6304710;22;20007;-80
2023/04/07 14:28:37;;;;;;;2.90;1.85;;;;;;;;;;6305241;22;19995;-83
2023/04/07 14:31:03;;;;;;;2.22;1.60;;;;;;;;;;6305995;22;20049;-84
2023/04/07 14:33:30;;;;;;;3.55;1.92;;;;;;;;;;6305772;22;20007;-84
2023/04/07 14:35:56;;;;;;;3.05;1.90;;;;;;;;;;6306357;22;20011;-79
2023/04/07 14:38:24;;;;;;;3.03;1.73;;;;;;;;;;6307763;22;20003;-84
2023/04/07 14:40:53;;;;;;;3.72;1.63;;;;;;;;;;6306899;22;20007;-85
2023/04/07 14:43:20;;;;;;;2.17;1.55;;;;;;;;;;6306254;22;20010;-85
2023/04/07 14:45:46;;;;;;;1.90;1.70;;;;;;;;;;6303756;22;20003;-82
2023/04/07 14:48:12;;;;;;;4.65;1.90;;;;;;;;;;6306696;22;20496;-83
2023/04/07 14:50:39;;;;;;;3.47;1.60;;;;;;;;;;6306617;22;20176;-88